»·PEaware :: SWA2383 KDAL-KABQ

SWA2383 :: KDAL-KABQ

FLIGHT INFORMATION

Flight Status: Arrived
Operator:
Southwest Airlines
More flights by this operator :: More flights under this callsign
Pilot: Andrew M. (3226)
Aircraft: BOEING 737-200
(B732)
More flights by this aircraft type
Origin: KDAL Dallas Love
United States
Destination: KABQ Albuquerque Intl Sunport
United States
More flights between these airports :: More routes between these airports
Route: CYOTE1 TXO MIERA2
File this flight plan on PilotEdge
Remarks: +CW /
Altitude:
(Current/Filed)
30,000ft
Speed:
(Current/Filed)
460kts
Departed: 04-Apr-20 10:02 AM
Arrived: 04-Apr-20 11:35 AM
Distance/Time
Traveled:
503nm/1:33
Distance/Time
To Go:
Arrived

Flight Plot

Page will automatically refresh every two minutes.

Flight plan parsing failed; only flown route is shown


Map Options




Map Legend


Flown Route
Filed Route
Departure Airport
Arrival Airport
Navaid (VOR, NDB)
Fix

Horizontal Profiles

Position Reports

Time Latitude Longitude Heading Altitude Ground
Speed
04-Apr-20 09:04 32.846443 -96.847964 180 484ft 0kts
04-Apr-20 09:05 32.846443 -96.847964 180 484ft 0kts
04-Apr-20 09:06 32.846443 -96.847964 180 484ft 0kts
04-Apr-20 09:07 32.846443 -96.847964 180 484ft 0kts
04-Apr-20 09:08 32.846443 -96.847964 180 484ft 0kts
04-Apr-20 09:09 32.846443 -96.847964 180 484ft 0kts
04-Apr-20 09:10 32.846443 -96.847964 180 484ft 0kts
04-Apr-20 09:11 32.846443 -96.847964 180 484ft 0kts
04-Apr-20 09:12 32.846443 -96.847964 180 484ft 0kts
04-Apr-20 09:13 32.846443 -96.847964 180 484ft 0kts
04-Apr-20 09:14 32.846443 -96.847964 180 484ft 0kts
04-Apr-20 09:15 32.846443 -96.847964 180 484ft 0kts
04-Apr-20 09:16 32.846443 -96.847964 180 484ft 0kts
04-Apr-20 09:17 32.846443 -96.847964 180 484ft 0kts
04-Apr-20 09:18 32.846443 -96.847964 180 484ft 0kts
04-Apr-20 09:19 32.846443 -96.847964 180 484ft 0kts
04-Apr-20 09:20 32.846443 -96.847964 180 484ft 0kts
04-Apr-20 09:21 32.846443 -96.847964 180 484ft 0kts
04-Apr-20 09:22 32.846443 -96.847964 180 484ft 0kts
04-Apr-20 09:23 32.846443 -96.847964 180 484ft 0kts
04-Apr-20 09:24 32.846443 -96.847964 180 484ft 0kts
04-Apr-20 09:25 32.846443 -96.847964 180 484ft 0kts
04-Apr-20 09:26 32.846443 -96.847964 180 484ft 0kts
04-Apr-20 09:27 32.846443 -96.847964 180 484ft 0kts
04-Apr-20 09:28 32.846443 -96.847964 180 484ft 0kts
04-Apr-20 09:29 32.846443 -96.847964 180 484ft 0kts
04-Apr-20 09:30 32.846443 -96.847964 180 484ft 0kts
04-Apr-20 09:31 32.846443 -96.847964 180 484ft 0kts
04-Apr-20 09:32 32.846443 -96.847964 180 484ft 0kts
04-Apr-20 09:33 32.846443 -96.847964 180 484ft 0kts
04-Apr-20 09:34 32.846443 -96.847964 180 484ft 0kts
04-Apr-20 09:35 32.846443 -96.847964 180 484ft 0kts
04-Apr-20 09:36 32.846443 -96.847964 180 484ft 0kts
04-Apr-20 09:37 32.846443 -96.847964 180 484ft 0kts
04-Apr-20 09:38 32.846443 -96.847964 180 484ft 0kts
04-Apr-20 09:39 32.846443 -96.847964 180 484ft 0kts
04-Apr-20 09:40 32.846443 -96.847964 180 484ft 0kts
04-Apr-20 09:41 32.846443 -96.847964 180 484ft 0kts
04-Apr-20 09:42 32.846443 -96.847964 180 484ft 0kts
04-Apr-20 09:43 32.846443 -96.847964 180 484ft 0kts
04-Apr-20 09:44 32.846443 -96.847964 180 484ft 0kts
04-Apr-20 09:45 32.846443 -96.847964 180 484ft 0kts
04-Apr-20 09:46 32.846443 -96.847964 180 484ft 0kts
04-Apr-20 09:47 32.846443 -96.847964 180 484ft 0kts
04-Apr-20 09:48 32.846443 -96.847964 180 484ft 0kts
04-Apr-20 09:49 32.846443 -96.847964 180 484ft 0kts
04-Apr-20 09:50 32.846460 -96.847964 180 484ft 1kts
04-Apr-20 09:51 32.846974 -96.848160 129 484ft 2kts
04-Apr-20 09:52 32.847043 -96.848285 119 484ft 0kts
04-Apr-20 09:53 32.847043 -96.848285 119 484ft 0kts
04-Apr-20 09:55 32.847043 -96.848285 119 484ft 0kts
04-Apr-20 09:56 32.847043 -96.848285 119 484ft 0kts
04-Apr-20 09:57 32.846845 -96.847214 136 484ft 12kts
04-Apr-20 09:58 32.843099 -96.843477 136 484ft 19kts
04-Apr-20 09:59 32.841516 -96.839969 45 487ft 0kts
04-Apr-20 10:00 32.841516 -96.839969 45 487ft 0kts
04-Apr-20 10:01 32.841679 -96.839770 45 488ft 7kts
04-Apr-20 10:02 32.852412 -96.851146 316 507ft 159kts
04-Apr-20 10:03 32.888358 -96.894591 314 2955ft 208kts
04-Apr-20 10:04 32.920807 -96.960044 277 6031ft 243kts
04-Apr-20 10:05 32.926785 -97.038829 274 9053ft 244kts
04-Apr-20 10:06 32.933468 -97.127197 274 10774ft 291kts
04-Apr-20 10:07 32.920685 -97.227377 254 12996ft 309kts
04-Apr-20 10:08 32.897038 -97.326723 254 15492ft 309kts
04-Apr-20 10:09 32.872514 -97.426544 254 17592ft 312kts
04-Apr-20 10:10 32.864884 -97.530887 269 19446ft 315kts
04-Apr-20 10:10 32.867145 -97.619892 270 20593ft 324kts
04-Apr-20 10:12 32.869571 -97.749132 267 22293ft 329kts
04-Apr-20 10:13 32.869162 -97.860508 265 23506ft 335kts
04-Apr-20 10:13 32.867281 -97.954511 264 24529ft 336kts
04-Apr-20 10:14 32.864113 -98.068029 264 25550ft 339kts
04-Apr-20 10:16 32.861048 -98.201004 265 26656ft 342kts
04-Apr-20 10:17 32.860215 -98.316212 266 27480ft 343kts
04-Apr-20 10:17 32.860265 -98.412973 266 28065ft 345kts
04-Apr-20 10:18 32.860442 -98.529171 266 28701ft 347kts
04-Apr-20 10:19 32.859850 -98.646072 266 29242ft 348kts
04-Apr-20 10:20 32.857999 -98.761888 265 29865ft 348kts
04-Apr-20 10:21 32.855245 -98.879247 265 30182ft 351kts
04-Apr-20 10:22 32.852161 -98.997166 265 30169ft 354kts
04-Apr-20 10:23 32.849458 -99.116630 265 30165ft 357kts
04-Apr-20 10:24 32.847361 -99.237032 266 30165ft 358kts
04-Apr-20 10:25 32.846094 -99.357514 266 30164ft 359kts
04-Apr-20 10:26 32.845056 -99.477948 266 30164ft 359kts
04-Apr-20 10:27 32.844196 -99.598572 270 30159ft 360kts
04-Apr-20 10:28 32.882515 -99.713932 287 30166ft 372kts
04-Apr-20 10:29 32.926845 -99.828055 287 30164ft 374kts
04-Apr-20 10:30 32.971203 -99.942556 287 30173ft 376kts
04-Apr-20 10:31 33.015199 -100.057925 288 30184ft 376kts
04-Apr-20 10:32 33.058688 -100.173658 288 30188ft 376kts
04-Apr-20 10:33 33.101870 -100.289586 288 30190ft 376kts
04-Apr-20 10:34 33.145057 -100.405769 288 30191ft 376kts
04-Apr-20 10:35 33.188585 -100.521799 288 30191ft 376kts
04-Apr-20 10:36 33.237680 -100.634979 293 30192ft 380kts
04-Apr-20 10:37 33.291053 -100.746886 292 30193ft 380kts
04-Apr-20 10:38 33.338367 -100.862294 287 30187ft 379kts
04-Apr-20 10:39 33.377164 -100.981713 284 30177ft 378kts
04-Apr-20 10:40 33.412919 -101.102529 285 30173ft 380kts
04-Apr-20 10:41 33.453182 -101.221982 288 30173ft 382kts
04-Apr-20 10:42 33.498947 -101.339790 290 30169ft 384kts
04-Apr-20 10:43 33.544366 -101.458231 289 30168ft 383kts
04-Apr-20 10:44 33.586273 -101.577538 288 30164ft 382kts
04-Apr-20 10:45 33.627880 -101.697775 288 30166ft 384kts
04-Apr-20 10:46 33.670802 -101.818438 289 30165ft 387kts
04-Apr-20 10:47 33.713733 -101.939501 296 30155ft 392kts
04-Apr-20 10:48 33.795994 -102.033787 312 30164ft 406kts
04-Apr-20 10:49 33.882110 -102.125153 311 30164ft 405kts
04-Apr-20 10:50 33.965202 -102.219973 309 30164ft 404kts
04-Apr-20 10:51 34.045987 -102.317517 308 30164ft 404kts
04-Apr-20 10:52 34.127688 -102.414412 310 30161ft 406kts
04-Apr-20 10:53 34.211734 -102.508774 310 30156ft 406kts
04-Apr-20 10:54 34.295070 -102.604286 310 30155ft 405kts
04-Apr-20 10:55 34.376610 -102.701441 309 30157ft 406kts
04-Apr-20 10:56 34.459730 -102.798447 309 30155ft 408kts
04-Apr-20 10:57 34.530916 -102.903411 280 30154ft 390kts
04-Apr-20 10:58 34.534698 -103.036843 269 30153ft 389kts
04-Apr-20 10:59 34.545439 -103.169303 280 30148ft 392kts
04-Apr-20 11:00 34.568639 -103.301208 279 30146ft 392kts
04-Apr-20 11:01 34.589900 -103.433494 279 30146ft 392kts
04-Apr-20 11:02 34.609960 -103.565848 278 30146ft 392kts
04-Apr-20 11:03 34.629761 -103.698723 278 30148ft 393kts
04-Apr-20 11:04 34.649491 -103.831766 278 30146ft 395kts
04-Apr-20 11:05 34.669640 -103.965579 278 30142ft 396kts
04-Apr-20 11:06 34.689936 -104.099928 278 30099ft 397kts
04-Apr-20 11:07 34.710095 -104.234157 278 30089ft 397kts
04-Apr-20 11:08 34.730013 -104.368802 278 30090ft 397kts
04-Apr-20 11:09 34.749464 -104.503475 278 30087ft 397kts
04-Apr-20 11:10 34.768752 -104.638188 278 30085ft 396kts
04-Apr-20 11:11 34.787843 -104.772983 278 30083ft 398kts
04-Apr-20 11:12 34.807002 -104.908113 278 30082ft 399kts
04-Apr-20 11:13 34.826163 -105.043787 278 30100ft 399kts
04-Apr-20 11:14 34.845421 -105.179430 278 30077ft 399kts
04-Apr-20 11:15 34.864411 -105.312867 278 27867ft 392kts
04-Apr-20 11:16 34.882951 -105.443574 278 25959ft 381kts
04-Apr-20 11:17 34.900843 -105.571494 278 23766ft 372kts
04-Apr-20 11:18 34.918054 -105.696648 277 21498ft 362kts
04-Apr-20 11:19 34.934420 -105.818060 277 19331ft 352kts
04-Apr-20 11:20 34.950053 -105.936486 276 17172ft 345kts
04-Apr-20 11:21 34.964662 -106.052567 276 15185ft 341kts
04-Apr-20 11:22 34.978881 -106.166193 277 14066ft 332kts
04-Apr-20 11:23 34.993888 -106.273416 273 12952ft 304kts
04-Apr-20 11:24 34.982997 -106.374249 259 11679ft 286kts
04-Apr-20 11:25 34.969340 -106.471798 259 10205ft 281kts
04-Apr-20 11:26 34.961696 -106.565080 276 9107ft 271kts
04-Apr-20 11:27 34.978559 -106.653035 281 8992ft 254kts
04-Apr-20 11:28 34.995698 -106.734601 281 8665ft 220kts
04-Apr-20 11:29 35.019894 -106.798794 342 7346ft 222kts
04-Apr-20 11:30 35.057489 -106.764429 106 7196ft 202kts
04-Apr-20 11:31 35.045582 -106.701877 94 6693ft 161kts
04-Apr-20 11:32 35.044507 -106.647174 90 5790ft 156kts
04-Apr-20 11:33 35.044202 -106.598180 91 5324ft 93kts
04-Apr-20 11:34 35.045302 -106.588162 356 5334ft 0kts
04-Apr-20 11:35 35.045302 -106.588162 356 5334ft 0kts
04-Apr-20 11:36 35.045832 -106.592627 270 5330ft 27kts
04-Apr-20 11:37 35.045749 -106.602547 270 5324ft 25kts
04-Apr-20 11:38 35.045811 -106.610786 269 5320ft 18kts
04-Apr-20 11:39 35.047498 -106.613086 0 5319ft 12kts
04-Apr-20 11:40 35.047941 -106.614295 209 5316ft 0kts
04-Apr-20 11:41 35.047941 -106.614295 209 5316ft 0kts
04-Apr-20 11:42 35.047941 -106.614295 209 5316ft 0kts
04-Apr-20 11:43 35.047941 -106.614295 209 5316ft 0kts
04-Apr-20 11:44 35.047941 -106.614295 209 5316ft 0kts

Navigation Log

Ident Type
Flight plan parsing failed, navigation log unavailable